SPTN/TCQ METAR and TAF weather

Enter ICAO airport designator
Station Type Date Time Source
SPTN METAR 2020/12/05 19:00 UTC NOAA

SPTN 051900Z 23010KT 180V280 CAVOK 24/13 Q1015 RMK PP000


Station Type Date Time Source
SPTN Decoded METAR 2020/12/05 19:00 UTC NOAA

Tacna, Peru (SPTN) 18-04S 070-18W 469M
Dec 05, 2020 - 02:00 PM EST / 2020.12.05 1900 UTC
Wind: from the SW (230 degrees) at 12 MPH (10 KT) (direction variable):0
Visibility: greater than 7 mile(s):0
Temperature: 75 F (24 C)
Dew Point: 55 F (13 C)
Relative Humidity: 50%
Pressure (altimeter): 29.97 in. Hg (1015 hPa)
ob: SPTN 051900Z 23010KT 180V280 CAVOK 24/13 Q1015 RMK PP000
cycle: 19

Station Type Date Time Source
SPTN TAF 2020/12/05 18:33 UTC NOAA

TAF SPTN 051700Z 0518/0618 22008KT CAVOK TX25/0519Z TN15/0610Z
FM060100 25004KT 9999 SCT025

Example: see airport list